Time;durP1;ratioP1;P1;durP2;ratioP2;P2;SDS_P1;SDS_P2;PMS_P1;PMS_P2;Temp;Humidity;BMP_temperature;BMP_pressure;BME280_temperature;BME280_humidity;BME280_pressure;Samples;Min_cycle;Max_cycle;Signal;HPM_P1;HPM_P2
2021/09/15 00:01:29;;;;;;;9.90;6.53;;;15.70;99.90;;;;;;4141825;28;20080;-68
2021/09/15 00:03:34;;;;;;;10.73;6.32;;;15.70;99.90;;;;;;4140238;28;20065;-68
2021/09/15 00:05:36;;;;;;;6.93;5.30;;;15.70;99.90;;;;;;4141444;28;21429;-69
2021/09/15 00:07:37;;;;;;;8.07;5.55;;;15.70;99.90;;;;;;4140479;28;20034;-69
2021/09/15 00:09:38;;;;;;;7.25;5.90;;;15.70;99.90;;;;;;4142616;28;20399;-69
2021/09/15 00:11:39;;;;;;;7.82;5.88;;;15.70;99.90;;;;;;4140442;28;20033;-69
2021/09/15 00:13:40;;;;;;;6.10;5.50;;;15.70;99.90;;;;;;4142061;28;20058;-70
2021/09/15 00:15:41;;;;;;;8.15;6.22;;;15.60;99.90;;;;;;4140239;28;20046;-69
2021/09/15 00:17:43;;;;;;;6.68;5.05;;;15.60;99.90;;;;;;4141564;28;20092;-69
2021/09/15 00:19:44;;;;;;;6.22;5.47;;;15.60;99.90;;;;;;4139946;28;20084;-69
2021/09/15 00:21:45;;;;;;;7.85;6.10;;;15.60;99.90;;;;;;4140572;28;20352;-69
2021/09/15 00:23:46;;;;;;;8.63;5.88;;;15.60;99.90;;;;;;4140092;28;20424;-68
2021/09/15 00:25:47;;;;;;;7.35;5.88;;;15.60;99.90;;;;;;4139986;28;20089;-69
2021/09/15 00:27:48;;;;;;;8.68;5.78;;;15.60;99.90;;;;;;4141106;28;20030;-68
2021/09/15 00:29:50;;;;;;;7.10;5.47;;;15.60;99.90;;;;;;4139643;28;20441;-69
2021/09/15 00:31:51;;;;;;;7.32;5.78;;;15.60;99.90;;;;;;4140885;28;20048;-70
2021/09/15 00:33:52;;;;;;;10.48;5.90;;;15.60;99.90;;;;;;4140061;28;20038;-70
2021/09/15 00:35:54;;;;;;;6.43;5.13;;;15.60;99.90;;;;;;4141016;28;20030;-70
2021/09/15 00:37:55;;;;;;;7.68;5.25;;;15.60;99.90;;;;;;4139984;28;20026;-70
2021/09/15 00:39:56;;;;;;;6.57;5.55;;;15.60;99.90;;;;;;4141639;28;20037;-70
2021/09/15 00:41:57;;;;;;;13.52;5.32;;;15.50;99.90;;;;;;4139425;28;20034;-69
2021/09/15 00:44:07;;;;;;;7.97;5.85;;;15.50;99.90;;;;;;4141153;28;20034;-68
2021/09/15 00:46:08;;;;;;;9.52;5.78;;;15.50;99.90;;;;;;4123654;28;20026;-70
2021/09/15 00:48:10;;;;;;;8.25;5.75;;;15.50;99.90;;;;;;4123867;28;20031;-69
2021/09/15 00:50:12;;;;;;;9.07;5.57;;;15.50;99.90;;;;;;4127932;28;20030;-68
2021/09/15 00:52:14;;;;;;;9.65;5.97;;;15.40;99.90;;;;;;4140789;28;20095;-69
2021/09/15 00:54:16;;;;;;;8.40;5.85;;;15.40;99.90;;;;;;4140327;28;20041;-69
2021/09/15 00:56:18;;;;;;;7.78;6.00;;;15.30;99.90;;;;;;4138940;28;20037;-69
2021/09/15 00:58:19;;;;;;;9.68;6.43;;;15.30;99.90;;;;;;4140530;28;20030;-69
2021/09/15 01:00:20;;;;;;;6.80;5.43;;;15.40;99.90;;;;;;4139569;28;20061;-69
2021/09/15 01:02:21;;;;;;;6.18;5.30;;;15.30;99.90;;;;;;4142666;28;20490;-68
2021/09/15 01:04:22;;;;;;;8.48;5.85;;;15.30;99.90;;;;;;4139186;28;20081;-67
2021/09/15 01:06:24;;;;;;;8.30;6.43;;;15.30;99.90;;;;;;4140416;28;20104;-69
2021/09/15 01:08:25;;;;;;;7.57;6.22;;;15.20;99.90;;;;;;4139967;28;20034;-69
2021/09/15 01:10:27;;;;;;;9.98;6.68;;;15.20;99.90;;;;;;4141394;28;20034;-69
2021/09/15 01:12:29;;;;;;;16.42;6.03;;;15.10;99.90;;;;;;4139321;28;20080;-69
2021/09/15 01:14:30;;;;;;;9.95;7.00;;;15.10;99.90;;;;;;4140617;28;20104;-69
2021/09/15 01:17:07;;;;;;;9.95;6.68;;;15.00;99.90;;;;;;4139501;28;20034;-69
2021/09/15 01:19:08;;;;;;;8.75;6.40;;;15.00;99.90;;;;;;4105918;28;20471;-70
2021/09/15 01:21:09;;;;;;;12.10;7.28;;;15.10;99.90;;;;;;4122680;28;20100;-68
2021/09/15 01:23:11;;;;;;;6.65;5.43;;;15.00;99.90;;;;;;4139019;28;20057;-68
2021/09/15 01:25:13;;;;;;;8.05;6.15;;;15.00;99.90;;;;;;4139367;28;20058;-70
2021/09/15 01:27:14;;;;;;;8.25;6.25;;;15.00;99.90;;;;;;4140514;28;20825;-69
2021/09/15 01:29:19;;;;;;;11.32;7.15;;;15.00;99.90;;;;;;4138637;28;20034;-68
2021/09/15 01:31:20;;;;;;;7.18;6.00;;;15.00;99.90;;;;;;4140481;28;20084;-68
2021/09/15 01:33:21;;;;;;;7.50;5.60;;;15.00;99.90;;;;;;4139649;28;20022;-68
2021/09/15 01:35:22;;;;;;;7.35;6.00;;;15.00;99.90;;;;;;4139170;28;20026;-69
2021/09/15 01:37:25;;;;;;;7.70;6.38;;;15.00;99.90;;;;;;4140139;28;20041;-68
2021/09/15 01:39:26;;;;;;;8.77;6.50;;;15.00;99.90;;;;;;4140369;28;20476;-68
2021/09/15 01:41:27;;;;;;;10.38;6.60;;;15.00;99.90;;;;;;4140228;28;20037;-69
2021/09/15 01:43:28;;;;;;;7.75;5.32;;;15.00;99.90;;;;;;4139294;28;20514;-67
2021/09/15 01:45:29;;;;;;;7.13;5.72;;;15.00;99.90;;;;;;4140524;28;20037;-66
2021/09/15 01:47:30;;;;;;;6.05;5.45;;;15.00;99.90;;;;;;4139233;28;20033;-68
2021/09/15 01:49:33;;;;;;;10.70;6.15;;;15.00;99.90;;;;;;4140281;28;20037;-70
2021/09/15 01:51:39;;;;;;;8.45;5.68;;;14.90;99.90;;;;;;4139042;28;20511;-69
2021/09/15 01:53:40;;;;;;;7.65;5.60;;;14.90;99.90;;;;;;4139866;28;20042;-69
2021/09/15 01:55:41;;;;;;;7.20;6.03;;;14.90;99.90;;;;;;4139001;28;20520;-70
2021/09/15 01:57:42;;;;;;;8.88;6.05;;;14.90;99.90;;;;;;4140503;28;20100;-70
2021/09/15 01:59:44;;;;;;;8.18;6.10;;;14.90;99.90;;;;;;4138854;28;20030;-69
2021/09/15 02:01:45;;;;;;;6.63;5.47;;;14.80;99.90;;;;;;4140627;28;20030;-69
2021/09/15 02:03:46;;;;;;;10.25;6.30;;;14.80;99.90;;;;;;4139376;28;20038;-67
2021/09/15 02:05:49;;;;;;;8.40;6.03;;;14.80;99.90;;;;;;4139461;28;20112;-68
2021/09/15 02:07:50;;;;;;;8.68;6.05;;;14.80;99.90;;;;;;4139142;28;20022;-69
2021/09/15 02:09:51;;;;;;;9.00;5.68;;;14.80;99.90;;;;;;4139985;28;20038;-68
2021/09/15 02:11:52;;;;;;;6.60;5.93;;;14.80;99.90;;;;;;4142583;28;20112;-70
2021/09/15 02:13:53;;;;;;;7.18;5.72;;;14.80;99.90;;;;;;4142423;28;20107;-68
2021/09/15 02:15:55;;;;;;;7.47;5.22;;;14.80;99.90;;;;;;4143417;28;20490;-69
2021/09/15 02:17:56;;;;;;;7.50;5.80;;;14.80;99.90;;;;;;4142100;28;20490;-68
2021/09/15 02:19:57;;;;;;;8.90;5.53;;;14.80;99.90;;;;;;4143372;28;20033;-68
2021/09/15 02:21:58;;;;;;;7.05;5.90;;;14.70;99.90;;;;;;4141912;28;20080;-67
2021/09/15 02:23:59;;;;;;;6.30;5.43;;;14.70;99.90;;;;;;4143258;28;20548;-68
2021/09/15 02:26:00;;;;;;;10.05;6.60;;;14.70;99.90;;;;;;4141928;28;20034;-69
2021/09/15 02:28:02;;;;;;;8.90;6.40;;;14.70;99.90;;;;;;4143225;28;20091;-67
2021/09/15 02:30:04;;;;;;;18.10;6.88;;;14.70;99.90;;;;;;4141871;28;20099;-69
2021/09/15 02:32:05;;;;;;;7.22;5.60;;;14.70;99.90;;;;;;4142154;28;20050;-70
2021/09/15 02:34:06;;;;;;;8.35;5.65;;;14.70;99.90;;;;;;4141747;28;20025;-70
2021/09/15 02:36:07;;;;;;;8.05;5.95;;;14.70;99.90;;;;;;4140905;28;20046;-70
2021/09/15 02:38:08;;;;;;;14.65;6.68;;;14.70;99.90;;;;;;4141876;28;20038;-68
2021/09/15 02:40:10;;;;;;;8.02;5.78;;;14.70;99.90;;;;;;4143218;28;20021;-68
2021/09/15 02:42:11;;;;;;;8.40;5.90;;;14.70;99.90;;;;;;4142826;28;20030;-68
2021/09/15 02:44:12;;;;;;;8.23;6.38;;;14.70;99.90;;;;;;4142064;28;20064;-68
2021/09/15 02:46:13;;;;;;;7.82;6.07;;;14.70;99.90;;;;;;4143063;28;20494;-68
2021/09/15 02:48:14;;;;;;;8.63;5.70;;;14.70;99.90;;;;;;4141099;28;20041;-68
2021/09/15 02:50:16;;;;;;;8.07;6.32;;;14.70;99.90;;;;;;4143098;28;20042;-69
2021/09/15 02:52:17;;;;;;;7.20;5.78;;;14.70;99.90;;;;;;4141119;28;20038;-69
2021/09/15 02:54:18;;;;;;;6.60;5.47;;;14.70;99.90;;;;;;4143268;28;20026;-68
2021/09/15 02:56:19;;;;;;;7.88;6.00;;;14.70;99.90;;;;;;4125003;28;20388;-69
2021/09/15 02:58:20;;;;;;;7.57;5.32;;;14.70;99.90;;;;;;4126723;28;20097;-69
2021/09/15 03:00:21;;;;;;;10.23;7.00;;;14.80;99.90;;;;;;4136535;28;20033;-68
2021/09/15 03:02:22;;;;;;;6.68;5.97;;;14.80;99.90;;;;;;4143004;28;20033;-69
2021/09/15 03:04:24;;;;;;;7.70;6.03;;;14.80;99.90;;;;;;4140959;28;20021;-69
2021/09/15 03:06:25;;;;;;;7.32;6.50;;;14.80;99.90;;;;;;4141956;28;20041;-70
2021/09/15 03:08:26;;;;;;;7.47;5.20;;;14.80;99.90;;;;;;4141226;28;20034;-69
2021/09/15 03:10:28;;;;;;;11.75;5.75;;;14.90;99.90;;;;;;4142329;28;20030;-70
2021/09/15 03:12:29;;;;;;;8.15;5.88;;;14.90;99.90;;;;;;4141482;28;20071;-70
2021/09/15 03:14:30;;;;;;;7.25;5.55;;;14.90;99.90;;;;;;4141374;28;20544;-70
2021/09/15 03:16:32;;;;;;;8.80;6.07;;;14.90;99.90;;;;;;4142292;28;20050;-69
2021/09/15 03:18:33;;;;;;;7.95;5.85;;;14.90;99.90;;;;;;4141206;28;20033;-69
2021/09/15 03:20:34;;;;;;;8.10;5.85;;;14.90;99.90;;;;;;4141918;28;20034;-68
2021/09/15 03:22:35;;;;;;;6.45;5.55;;;14.90;99.90;;;;;;4138415;28;20088;-69
2021/09/15 03:24:36;;;;;;;9.10;5.82;;;14.90;99.90;;;;;;4142138;28;20117;-69
2021/09/15 03:26:37;;;;;;;10.38;6.13;;;14.80;99.90;;;;;;4141247;28;20050;-69
2021/09/15 03:28:38;;;;;;;6.63;5.20;;;14.80;99.90;;;;;;4142403;28;20494;-69
2021/09/15 03:30:40;;;;;;;7.93;6.22;;;14.80;99.90;;;;;;4140223;28;20088;-69
2021/09/15 03:32:41;;;;;;;10.45;6.32;;;14.80;99.90;;;;;;4142114;28;20091;-69
2021/09/15 03:34:42;;;;;;;7.15;6.10;;;14.70;99.90;;;;;;4140002;28;20084;-70
2021/09/15 03:36:43;;;;;;;7.22;6.28;;;14.80;99.90;;;;;;4141895;28;20034;-70
2021/09/15 03:38:44;;;;;;;10.18;6.45;;;14.80;99.90;;;;;;4140414;28;20080;-69
2021/09/15 03:40:46;;;;;;;7.97;6.13;;;14.80;99.90;;;;;;4141636;28;20038;-70
2021/09/15 03:42:47;;;;;;;12.02;6.22;;;14.70;99.90;;;;;;4141723;28;20069;-69
2021/09/15 03:44:48;;;;;;;15.15;7.00;;;14.70;99.90;;;;;;4141125;28;20021;-70
2021/09/15 03:46:49;;;;;;;13.55;7.70;;;14.70;99.90;;;;;;4141517;28;20049;-70
2021/09/15 03:48:50;;;;;;;14.52;9.55;;;14.70;99.90;;;;;;4140569;28;20437;-73
2021/09/15 03:50:51;;;;;;;22.38;11.55;;;14.50;99.90;;;;;;4141801;28;20064;-71
2021/09/15 03:52:52;;;;;;;14.98;10.90;;;14.40;99.90;;;;;;4140876;28;20518;-72
2021/09/15 03:54:53;;;;;;;10.13;8.30;;;14.30;99.90;;;;;;4141745;28;20084;-69
2021/09/15 03:56:55;;;;;;;9.65;6.53;;;14.20;99.90;;;;;;4140247;28;20837;-70
2021/09/15 03:58:56;;;;;;;10.05;6.70;;;14.10;99.90;;;;;;4141930;28;20095;-68
2021/09/15 04:00:57;;;;;;;12.88;7.90;;;14.00;99.90;;;;;;4139104;28;20030;-69
2021/09/15 04:02:58;;;;;;;15.68;8.50;;;13.90;99.90;;;;;;4141565;28;21414;-69
2021/09/15 04:04:59;;;;;;;11.23;7.22;;;13.80;99.90;;;;;;4139509;28;20017;-71
2021/09/15 04:07:00;;;;;;;17.25;8.48;;;13.80;99.90;;;;;;4141432;28;20076;-71
2021/09/15 04:09:01;;;;;;;16.08;7.80;;;13.80;99.90;;;;;;4139849;28;20764;-69
2021/09/15 04:11:03;;;;;;;14.30;9.63;;;13.90;99.90;;;;;;4140409;28;20034;-70
2021/09/15 04:13:05;;;;;;;12.13;8.40;;;13.90;99.90;;;;;;4140367;28;20091;-70
2021/09/15 04:15:06;;;;;;;13.32;8.70;;;14.00;99.90;;;;;;4140014;28;20034;-70
2021/09/15 04:17:08;;;;;;;20.15;8.07;;;14.00;99.90;;;;;;4140297;28;20038;-69
2021/09/15 04:19:09;;;;;;;10.73;7.65;;;14.10;99.90;;;;;;4137608;28;20120;-71
2021/09/15 04:21:10;;;;;;;14.77;8.13;;;14.10;99.90;;;;;;4141076;28;20434;-69
2021/09/15 04:23:19;;;;;;;16.33;10.02;;;14.20;99.90;;;;;;4137763;28;20115;-67
2021/09/15 04:32:09;;;;;;;12.40;7.78;;;14.60;99.90;;;;;;4139652;28;20100;-71
2021/09/15 04:34:10;;;;;;;13.88;7.93;;;14.60;99.90;;;;;;4140275;28;20092;-68
2021/09/15 04:36:11;;;;;;;9.52;7.50;;;14.80;99.90;;;;;;4138848;28;20089;-68
2021/09/15 04:38:12;;;;;;;13.50;7.10;;;14.90;99.90;;;;;;4140674;28;20030;-71
2021/09/15 04:40:13;;;;;;;11.20;7.57;;;15.00;99.90;;;;;;4134771;28;20042;-72
2021/09/15 04:42:14;;;;;;;27.42;13.38;;;15.10;99.90;;;;;;4137841;28;20041;-65
2021/09/15 04:44:16;;;;;;;27.77;13.80;;;15.10;99.90;;;;;;4133120;28;20111;-69
2021/09/15 04:46:17;;;;;;;16.40;9.25;;;15.10;99.90;;;;;;4141345;28;20505;-65
2021/09/15 04:48:18;;;;;;;14.30;7.97;;;15.20;99.90;;;;;;4139521;28;20084;-66
2021/09/15 04:50:19;;;;;;;12.60;7.65;;;15.20;99.90;;;;;;4140940;28;20116;-66
2021/09/15 04:52:20;;;;;;;12.00;7.90;;;15.50;99.90;;;;;;4139167;28;20618;-65
2021/09/15 04:54:21;;;;;;;13.00;7.50;;;15.50;99.90;;;;;;4140575;28;20026;-67
2021/09/15 04:56:22;;;;;;;14.95;7.18;;;15.70;99.90;;;;;;4140665;28;20611;-68
2021/09/15 04:58:24;;;;;;;16.83;7.22;;;15.80;99.90;;;;;;4139362;28;20488;-66
2021/09/15 05:00:25;;;;;;;21.25;7.88;;;15.80;99.90;;;;;;4140912;28;20033;-65
2021/09/15 05:02:26;;;;;;;10.13;7.15;;;15.90;99.90;;;;;;4139951;28;20100;-66
2021/09/15 05:04:28;;;;;;;12.98;7.15;;;16.20;99.90;;;;;;4140588;28;20576;-65
2021/09/15 05:06:29;;;;;;;14.70;8.60;;;16.30;99.90;;;;;;4139473;28;20062;-66
2021/09/15 05:08:30;;;;;;;16.98;8.70;;;16.50;99.90;;;;;;4139425;28;20096;-68
2021/09/15 05:10:31;;;;;;;10.95;7.07;;;16.70;99.90;;;;;;4139732;28;20847;-65
2021/09/15 05:12:32;;;;;;;12.00;7.32;;;17.10;99.90;;;;;;4139422;28;20076;-69
2021/09/15 05:14:33;;;;;;;12.48;6.78;;;17.40;99.90;;;;;;4136534;28;20046;-70
2021/09/15 05:16:36;;;;;;;11.60;6.97;;;17.80;99.90;;;;;;4132298;28;20033;-70
2021/09/15 05:18:37;;;;;;;11.63;6.47;;;18.10;99.90;;;;;;4148530;28;20087;-70
2021/09/15 05:20:38;;;;;;;10.55;6.35;;;18.30;99.90;;;;;;4142727;28;20026;-70
2021/09/15 05:22:39;;;;;;;17.10;6.80;;;18.60;99.90;;;;;;4147097;28;20030;-70
2021/09/15 05:24:40;;;;;;;13.48;6.68;;;18.90;99.90;;;;;;4137827;28;20834;-71
2021/09/15 05:26:41;;;;;;;9.75;5.65;;;19.10;99.90;;;;;;4139087;28;20088;-70
2021/09/15 05:28:43;;;;;;;8.95;6.38;;;19.30;99.90;;;;;;4139355;28;20115;-70
2021/09/15 05:30:44;;;;;;;13.45;6.80;;;19.20;99.90;;;;;;4139981;28;20108;-70
2021/09/15 05:32:46;;;;;;;14.38;6.63;;;19.50;99.90;;;;;;4138703;28;20022;-70
2021/09/15 05:34:47;;;;;;;14.48;6.25;;;19.80;99.90;;;;;;4139983;28;20442;-70
2021/09/15 05:36:48;;;;;;;18.35;6.75;;;19.80;99.90;;;;;;4138716;28;20774;-69
2021/09/15 05:38:49;;;;;;;13.93;6.15;;;19.70;99.90;;;;;;4140101;28;20034;-67
2021/09/15 05:40:50;;;;;;;10.57;7.00;;;19.70;99.90;;;;;;4138706;28;20084;-69
2021/09/15 05:42:51;;;;;;;15.23;7.40;;;19.70;99.90;;;;;;4139518;28;20091;-69
2021/09/15 05:44:53;;;;;;;11.57;6.18;;;20.00;99.90;;;;;;4137853;28;20041;-69
2021/09/15 05:46:54;;;;;;;13.13;5.88;;;20.30;99.90;;;;;;4140479;28;20029;-69
2021/09/15 05:48:55;;;;;;;16.80;6.22;;;20.40;99.90;;;;;;4138632;28;20034;-70
2021/09/15 05:50:56;;;;;;;11.25;6.40;;;20.30;99.90;;;;;;4140507;28;20071;-68
2021/09/15 05:52:57;;;;;;;8.50;5.97;;;20.40;99.90;;;;;;4138286;28;20490;-69
2021/09/15 05:54:58;;;;;;;9.05;5.55;;;20.50;99.90;;;;;;4139949;28;20037;-70
2021/09/15 05:56:59;;;;;;;16.05;6.25;;;20.70;99.90;;;;;;4137510;28;20022;-69
2021/09/15 05:59:00;;;;;;;8.32;5.70;;;20.40;99.90;;;;;;4139429;28;20434;-67
2021/09/15 06:01:01;;;;;;;14.13;5.47;;;20.50;99.90;;;;;;4139753;28;20096;-68
2021/09/15 06:03:03;;;;;;;12.30;6.50;;;20.30;99.90;;;;;;4137238;28;20101;-70
2021/09/15 06:05:04;;;;;;;9.40;5.03;;;20.30;99.90;;;;;;4139580;28;20045;-68
2021/09/15 06:07:06;;;;;;;10.43;5.22;;;20.20;99.90;;;;;;4138389;28;20034;-68
2021/09/15 06:09:07;;;;;;;13.07;6.75;;;20.30;99.90;;;;;;4138482;28;20475;-69
2021/09/15 06:11:08;;;;;;;15.43;5.05;;;20.30;99.90;;;;;;4139059;28;20084;-68
2021/09/15 06:13:09;;;;;;;11.30;5.65;;;20.20;99.90;;;;;;4140138;28;20034;-70
2021/09/15 06:15:12;;;;;;;13.77;6.90;;;19.80;99.90;;;;;;4138028;28;20156;-68
2021/09/15 06:17:13;;;;;;;9.10;5.60;;;19.70;99.90;;;;;;4140391;28;20034;-69
2021/09/15 06:19:14;;;;;;;9.05;6.07;;;19.40;99.90;;;;;;4138187;28;20038;-69
2021/09/15 06:21:16;;;;;;;7.25;4.82;;;19.40;99.90;;;;;;4140461;28;20089;-69
2021/09/15 06:23:17;;;;;;;9.07;6.22;;;19.70;99.90;;;;;;4138695;28;20042;-69
2021/09/15 06:25:20;;;;;;;13.77;7.40;;;19.90;99.90;;;;;;4139319;28;20908;-67
2021/09/15 06:27:24;;;;;;;11.73;6.30;;;20.40;99.90;;;;;;4139070;28;20073;-68
2021/09/15 06:29:25;;;;;;;22.63;10.20;;;20.50;99.90;;;;;;4139201;28;20076;-70
2021/09/15 06:31:26;;;;;;;19.77;11.98;;;20.30;99.90;;;;;;4139024;28;20438;-69
2021/09/15 06:33:28;;;;;;;17.67;12.25;;;19.70;99.90;;;;;;4138646;28;20026;-68
2021/09/15 06:35:29;;;;;;;29.05;13.10;;;19.00;99.90;;;;;;4139614;28;20084;-68
2021/09/15 06:37:30;;;;;;;24.55;14.35;;;18.50;99.90;;;;;;4138442;28;20561;-69
2021/09/15 06:39:31;;;;;;;30.17;18.23;;;18.30;99.90;;;;;;4139444;28;20053;-69
2021/09/15 06:41:33;;;;;;;40.22;23.38;;;18.10;99.90;;;;;;4138330;28;20544;-68
2021/09/15 06:43:34;;;;;;;29.55;20.15;;;18.00;99.90;;;;;;4139789;28;20516;-69
2021/09/15 06:45:36;;;;;;;28.38;18.70;;;18.00;99.90;;;;;;4136811;28;20496;-69
2021/09/15 06:47:44;;;;;;;25.08;16.30;;;18.00;99.90;;;;;;4139468;28;20042;-69
2021/09/15 06:49:45;;;;;;;21.75;15.07;;;17.90;99.90;;;;;;4137889;28;20081;-69
2021/09/15 06:51:46;;;;;;;19.52;12.77;;;18.00;99.90;;;;;;4139625;28;20050;-68
2021/09/15 06:53:48;;;;;;;23.35;13.80;;;18.10;99.90;;;;;;4137804;28;20092;-69
2021/09/15 06:55:49;;;;;;;20.75;13.43;;;18.20;99.90;;;;;;4139383;28;20046;-67
2021/09/15 06:57:51;;;;;;;18.75;12.70;;;18.30;99.90;;;;;;4140065;28;20907;-69
2021/09/15 06:59:52;;;;;;;25.70;14.20;;;18.30;99.90;;;;;;4141655;28;20093;-69
2021/09/15 07:01:53;;;;;;;19.58;13.50;;;18.20;99.90;;;;;;4142115;28;20037;-67
2021/09/15 07:03:54;;;;;;;21.05;13.80;;;18.30;99.90;;;;;;4141338;28;20041;-69
2021/09/15 07:05:55;;;;;;;25.35;14.32;;;18.40;99.90;;;;;;4141796;28;20100;-69
2021/09/15 07:07:57;;;;;;;18.50;13.00;;;18.60;99.90;;;;;;4140949;28;20096;-69
2021/09/15 07:09:58;;;;;;;19.42;13.80;;;18.80;99.90;;;;;;4142340;28;20466;-69
2021/09/15 07:12:00;;;;;;;21.85;12.63;;;19.00;99.90;;;;;;4140639;28;20049;-68
2021/09/15 07:14:03;;;;;;;22.58;13.00;;;19.50;99.90;;;;;;4142370;28;20030;-69
2021/09/15 07:16:05;;;;;;;18.02;10.55;;;19.80;99.90;;;;;;4140024;28;20058;-68
2021/09/15 07:18:07;;;;;;;20.63;12.00;;;20.20;99.90;;;;;;4142776;28;20778;-69
2021/09/15 07:20:09;;;;;;;15.52;10.52;;;20.50;99.90;;;;;;4140666;28;20482;-68
2021/09/15 07:22:10;;;;;;;25.27;10.98;;;20.70;99.90;;;;;;4141637;28;20446;-70
2021/09/15 07:24:11;;;;;;;17.17;11.20;;;20.50;99.90;;;;;;4140767;28;20088;-70
2021/09/15 07:26:12;;;;;;;15.98;11.23;;;20.30;99.90;;;;;;4142266;28;20746;-67
2021/09/15 07:28:13;;;;;;;23.35;11.65;;;20.10;99.90;;;;;;4140846;28;20084;-67
2021/09/15 07:30:14;;;;;;;24.88;12.23;;;19.90;99.90;;;;;;4141998;28;20041;-68
2021/09/15 07:32:15;;;;;;;24.05;10.52;;;20.00;99.90;;;;;;4141109;28;20088;-70
2021/09/15 07:34:17;;;;;;;21.75;10.30;;;20.10;99.90;;;;;;4141057;28;20064;-67
2021/09/15 07:36:18;;;;;;;19.30;10.65;;;20.10;99.90;;;;;;4141401;28;20105;-67
2021/09/15 07:38:19;;;;;;;16.05;10.68;;;20.30;99.90;;;;;;4140641;28;20042;-68
2021/09/15 07:40:20;;;;;;;16.65;11.18;;;20.40;99.90;;;;;;4142290;28;20481;-68
2021/09/15 07:42:22;;;;;;;18.48;10.13;;;20.70;99.90;;;;;;4140360;28;20567;-68
2021/09/15 07:44:23;;;;;;;17.13;10.05;;;20.80;99.90;;;;;;4140403;28;20100;-68
2021/09/15 07:46:24;;;;;;;21.10;11.35;;;21.00;99.90;;;;;;4140104;28;20077;-67
2021/09/15 07:48:26;;;;;;;17.52;10.30;;;21.10;99.90;;;;;;4141834;28;20033;-68
2021/09/15 07:50:27;;;;;;;20.73;11.70;;;21.20;99.90;;;;;;4140528;28;20437;-68
2021/09/15 07:52:28;;;;;;;15.07;9.73;;;21.40;99.90;;;;;;4142116;28;20116;-68
2021/09/15 07:54:29;;;;;;;20.60;9.70;;;21.90;99.90;;;;;;4140045;28;20065;-68
2021/09/15 07:56:31;;;;;;;19.08;10.43;;;22.30;99.90;;;;;;4140258;28;20548;-68
2021/09/15 07:58:32;;;;;;;18.42;10.18;;;22.20;99.90;;;;;;4139785;28;20049;-68
2021/09/15 08:00:33;;;;;;;20.73;10.30;;;21.90;99.90;;;;;;4140817;28;20033;-70
2021/09/15 08:02:34;;;;;;;11.45;9.90;;;21.90;99.90;;;;;;4140381;28;20084;-69
2021/09/15 08:04:35;;;;;;;17.25;9.52;;;22.00;99.90;;;;;;4140756;28;20152;-68
2021/09/15 08:06:36;;;;;;;18.33;10.25;;;22.10;99.90;;;;;;4141169;28;20322;-69
2021/09/15 08:08:37;;;;;;;20.25;9.85;;;22.10;99.90;;;;;;4139505;28;20092;-69
2021/09/15 08:10:40;;;;;;;20.00;9.95;;;22.10;99.90;;;;;;4142363;28;20034;-68
2021/09/15 08:12:41;;;;;;;16.25;9.75;;;22.10;99.90;;;;;;4139623;28;20038;-68
2021/09/15 08:14:42;;;;;;;17.00;9.18;;;21.90;99.90;;;;;;4141611;28;20115;-68
2021/09/15 08:16:44;;;;;;;12.77;8.18;;;22.00;99.90;;;;;;4140071;28;20034;-68
2021/09/15 08:18:45;;;;;;;20.65;7.80;;;22.20;99.90;;;;;;4141610;28;20034;-69
2021/09/15 08:20:46;;;;;;;16.00;8.52;;;22.50;99.90;;;;;;4139915;28;20022;-67
2021/09/15 08:22:47;;;;;;;13.23;7.88;;;22.90;99.90;;;;;;4140493;28;20431;-69
2021/09/15 08:24:48;;;;;;;10.77;7.78;;;23.00;99.90;;;;;;4139178;28;20082;-68
2021/09/15 08:26:49;;;;;;;10.98;7.30;;;23.20;99.90;;;;;;4141332;28;20116;-67
2021/09/15 08:28:50;;;;;;;10.60;6.50;;;23.50;99.90;;;;;;4139128;28;20026;-69
2021/09/15 08:30:52;;;;;;;10.13;7.38;;;23.60;99.90;;;;;;4140898;28;20042;-69
2021/09/15 08:32:53;;;;;;;14.85;7.45;;;23.60;99.90;;;;;;4140137;28;20489;-68
2021/09/15 08:34:54;;;;;;;11.93;6.72;;;23.80;99.80;;;;;;4140530;28;20033;-69
2021/09/15 08:36:55;;;;;;;14.93;7.18;;;23.90;99.50;;;;;;4140771;28;20414;-68
2021/09/15 08:38:56;;;;;;;7.63;6.55;;;24.10;99.30;;;;;;4139480;28;20021;-70
2021/09/15 08:40:57;;;;;;;14.18;7.60;;;23.90;99.40;;;;;;4141844;28;20041;-67
2021/09/15 08:42:59;;;;;;;20.98;7.40;;;23.80;99.40;;;;;;4139893;28;20084;-68
2021/09/15 08:45:03;;;;;;;12.27;7.20;;;23.50;99.60;;;;;;4141081;28;20038;-70
2021/09/15 08:47:07;;;;;;;12.15;6.32;;;23.10;99.70;;;;;;4139690;28;20034;-69
2021/09/15 08:49:10;;;;;;;8.23;5.88;;;22.90;99.80;;;;;;4140753;28;20030;-68
2021/09/15 08:51:14;;;;;;;8.68;6.22;;;22.70;99.50;;;;;;4139375;28;20088;-68
2021/09/15 08:53:16;;;;;;;9.65;6.30;;;22.90;99.40;;;;;;4140784;28;20092;-69
2021/09/15 08:55:17;;;;;;;8.40;5.70;;;23.00;99.50;;;;;;4138937;28;20034;-69
2021/09/15 08:57:19;;;;;;;10.52;5.93;;;23.30;99.10;;;;;;4140572;28;20065;-68
2021/09/15 08:59:20;;;;;;;13.35;7.00;;;23.30;98.90;;;;;;4138493;28;20084;-68
2021/09/15 09:01:24;;;;;;;7.47;5.88;;;23.40;98.70;;;;;;4140848;28;20092;-69
2021/09/15 09:03:35;;;;;;;8.45;5.57;;;23.50;98.60;;;;;;4139044;28;20426;-68
2021/09/15 09:05:36;;;;;;;8.32;5.50;;;23.40;98.10;;;;;;4140241;28;20709;-69
2021/09/15 09:07:38;;;;;;;8.20;6.10;;;23.20;98.60;;;;;;4138801;28;20096;-68
2021/09/15 09:09:50;;;;;;;9.32;5.80;;;23.30;98.60;;;;;;4139724;28;20092;-69
2021/09/15 09:12:00;;;;;;;9.85;5.72;;;23.40;98.20;;;;;;4140137;28;20068;-69
2021/09/15 09:14:06;;;;;;;10.50;5.63;;;23.70;97.70;;;;;;4139473;28;20038;-69
2021/09/15 09:16:08;;;;;;;9.80;5.82;;;23.50;98.00;;;;;;4138840;28;20030;-69
2021/09/15 09:18:09;;;;;;;5.68;4.60;;;23.40;98.10;;;;;;4139895;28;20022;-68
2021/09/15 09:20:18;;;;;;;6.93;5.03;;;23.50;98.20;;;;;;4139446;28;20057;-69
2021/09/15 09:22:19;;;;;;;7.18;5.25;;;23.90;97.90;;;;;;4139104;28;20029;-69
2021/09/15 09:24:25;;;;;;;13.85;6.03;;;24.10;97.30;;;;;;4139593;28;20097;-70
2021/09/15 09:26:46;;;;;;;8.75;4.82;;;24.30;96.90;;;;;;4138469;28;20486;-69
2021/09/15 09:28:47;;;;;;;9.10;5.93;;;24.30;96.50;;;;;;4139208;28;20856;-69
2021/09/15 09:30:52;;;;;;;7.47;5.40;;;24.30;96.90;;;;;;4138863;28;20046;-68
2021/09/15 09:32:53;;;;;;;6.63;4.90;;;24.30;97.00;;;;;;4140042;28;20172;-68
2021/09/15 09:34:56;;;;;;;8.68;5.07;;;24.40;96.70;;;;;;4138402;28;20030;-69
2021/09/15 09:37:18;;;;;;;5.57;4.15;;;24.40;96.40;;;;;;4140083;28;20409;-70
2021/09/15 09:39:19;;;;;;;7.20;4.93;;;24.50;96.00;;;;;;4138505;28;20034;-68
2021/09/15 09:41:21;;;;;;;4.50;4.10;;;24.70;95.80;;;;;;4140211;28;20506;-68
2021/09/15 09:43:22;;;;;;;4.38;3.97;;;24.50;94.90;;;;;;4138648;28;20030;-70
2021/09/15 09:45:23;;;;;;;4.57;3.85;;;24.30;94.70;;;;;;4140250;28;20096;-69
2021/09/15 09:47:25;;;;;;;4.85;3.67;;;24.10;95.10;;;;;;4138071;28;20060;-70
2021/09/15 09:49:26;;;;;;;5.40;3.58;;;24.00;94.70;;;;;;4139964;28;20034;-69
2021/09/15 09:51:41;;;;;;;5.68;3.90;;;23.90;94.00;;;;;;4138814;28;20073;-70
2021/09/15 09:53:42;;;;;;;3.78;3.47;;;23.80;93.20;;;;;;4140569;28;20080;-68
2021/09/15 09:55:44;;;;;;;5.82;3.70;;;23.90;93.60;;;;;;4138511;28;20096;-69
2021/09/15 09:57:52;;;;;;;4.18;3.22;;;24.00;93.30;;;;;;4140330;28;20568;-70
2021/09/15 09:59:57;;;;;;;4.22;3.45;;;24.30;92.40;;;;;;4139061;28;20045;-68
2021/09/15 10:02:00;;;;;;;4.82;3.53;;;24.50;91.80;;;;;;4139682;28;20046;-69
2021/09/15 10:04:02;;;;;;;3.88;3.47;;;24.50;91.40;;;;;;4137073;28;20030;-69
2021/09/15 10:06:03;;;;;;;5.35;3.90;;;24.60;91.30;;;;;;4139227;28;20054;-69
2021/09/15 10:08:07;;;;;;;5.82;3.63;;;24.60;91.00;;;;;;4138951;28;20367;-69
2021/09/15 10:10:11;;;;;;;4.25;3.60;;;24.60;91.00;;;;;;4139227;28;20034;-70
2021/09/15 10:12:13;;;;;;;3.15;2.85;;;24.70;90.60;;;;;;4139306;28;20037;-70
2021/09/15 10:14:16;;;;;;;4.82;3.85;;;24.60;90.50;;;;;;4138789;28;20072;-70
2021/09/15 10:16:21;;;;;;;4.63;3.92;;;24.70;90.20;;;;;;4139488;28;20057;-70
2021/09/15 10:18:23;;;;;;;3.47;3.17;;;24.70;90.10;;;;;;4138269;28;20104;-68
2021/09/15 10:20:29;;;;;;;3.80;3.50;;;24.80;89.90;;;;;;4139578;28;20022;-69
2021/09/15 10:22:34;;;;;;;4.18;3.78;;;24.80;89.00;;;;;;4138044;28;20088;-69
2021/09/15 10:24:51;;;;;;;5.95;3.67;;;24.80;89.20;;;;;;4139612;28;20462;-69
2021/09/15 10:26:58;;;;;;;5.28;3.40;;;24.80;88.60;;;;;;4136235;28;20041;-68
2021/09/15 10:29:19;;;;;;;7.50;3.75;;;24.90;88.70;;;;;;4138319;28;20038;-70
2021/09/15 10:31:51;;;;;;;4.95;3.90;;;24.80;87.70;;;;;;4139351;28;20034;-70
2021/09/15 10:33:53;;;;;;;5.20;3.95;;;24.80;86.80;;;;;;4141857;28;20080;-68
2021/09/15 10:35:54;;;;;;;4.05;3.65;;;24.70;88.20;;;;;;4140345;28;20045;-68
2021/09/15 10:37:56;;;;;;;4.25;3.85;;;24.70;87.90;;;;;;4141260;28;20042;-69